createdAt,value
2023-12-26T00:00:15.046Z,78.13
2023-12-26T00:03:08.294Z,78.07
2023-12-26T00:05:41.161Z,78.13
2023-12-26T00:08:13.118Z,78.39
2023-12-26T00:10:45.013Z,78.50
2023-12-26T00:13:16.720Z,78.66
2023-12-26T00:15:49.003Z,78.86
2023-12-26T00:18:21.474Z,79.07
2023-12-26T00:20:54.635Z,78.95
2023-12-26T00:23:26.557Z,79.23
2023-12-26T00:25:59.648Z,78.90
2023-12-26T00:28:31.432Z,79.14
2023-12-26T00:31:03.338Z,79.23
2023-12-26T00:33:35.652Z,79.19
2023-12-26T00:36:08.791Z,79.26
2023-12-26T00:38:40.714Z,79.02
2023-12-26T00:41:12.623Z,79.04
2023-12-26T00:43:44.495Z,79.02
2023-12-26T00:46:16.657Z,78.71
2023-12-26T00:48:48.786Z,78.58
2023-12-26T00:51:20.585Z,78.49
2023-12-26T00:53:52.344Z,78.88
2023-12-26T00:56:24.130Z,78.55
2023-12-26T00:58:55.898Z,78.77
2023-12-26T01:01:27.724Z,78.88
2023-12-26T01:03:59.645Z,79.25
2023-12-26T01:06:31.530Z,79.47
2023-12-26T01:09:03.938Z,79.57
2023-12-26T01:11:35.835Z,79.73
2023-12-26T01:14:07.957Z,80.09
2023-12-26T01:16:40.769Z,80.28
2023-12-26T01:19:12.671Z,80.12
2023-12-26T01:21:44.636Z,80.27
2023-12-26T01:24:16.681Z,80.37
2023-12-26T01:26:48.504Z,80.35
2023-12-26T01:29:20.298Z,80.10
2023-12-26T01:31:52.147Z,79.80
2023-12-26T01:34:24.045Z,79.81
2023-12-26T01:36:55.950Z,79.45
2023-12-26T01:39:29.372Z,79.28
2023-12-26T01:42:01.337Z,79.24
2023-12-26T01:44:33.626Z,79.16
2023-12-26T01:47:06.835Z,79.04
2023-12-26T01:49:38.721Z,78.90
2023-12-26T01:52:12.239Z,78.42
2023-12-26T01:54:44.034Z,78.23
2023-12-26T01:57:15.855Z,78.25
2023-12-26T01:59:49.699Z,78.44
2023-12-26T02:02:22.577Z,78.36
2023-12-26T02:04:55.294Z,78.25
2023-12-26T02:07:27.315Z,78.21
2023-12-26T02:10:00.490Z,78.19
2023-12-26T02:12:32.239Z,78.04
2023-12-26T02:15:05.075Z,78.10
2023-12-26T02:17:37.670Z,78.49
2023-12-26T02:20:11.333Z,78.61
2023-12-26T02:22:46.897Z,78.99
2023-12-26T02:25:21.379Z,79.16
2023-12-26T02:27:53.284Z,79.49
2023-12-26T02:30:26.088Z,80.18
2023-12-26T02:32:59.018Z,80.57
2023-12-26T02:35:31.592Z,80.29
2023-12-26T02:38:04.613Z,80.83
2023-12-26T02:40:36.300Z,80.71
2023-12-26T02:43:08.152Z,80.79
2023-12-26T02:45:39.830Z,80.95
2023-12-26T02:48:11.957Z,81.16
2023-12-26T02:50:44.090Z,81.46
2023-12-26T02:53:16.402Z,81.23
2023-12-26T02:55:49.479Z,81.14
2023-12-26T02:58:21.246Z,80.98
2023-12-26T03:00:53.078Z,81.09
2023-12-26T03:03:24.937Z,81.28
2023-12-26T03:05:57.389Z,81.56
2023-12-26T03:08:29.224Z,81.62
2023-12-26T03:11:01.403Z,81.67
2023-12-26T03:13:33.211Z,81.68
2023-12-26T03:16:05.077Z,81.91
2023-12-26T03:18:38.218Z,82.19
2023-12-26T03:21:10.133Z,82.02
2023-12-26T03:23:42.398Z,82.07
2023-12-26T03:26:14.244Z,81.95
2023-12-26T03:28:46.420Z,82.32
2023-12-26T03:31:18.349Z,82.13
2023-12-26T03:33:50.159Z,81.91
2023-12-26T03:36:22.046Z,82.23
2023-12-26T03:38:53.790Z,82.17
2023-12-26T03:41:25.612Z,82.12
2023-12-26T03:43:57.335Z,82.18
2023-12-26T03:46:29.105Z,82.27
2023-12-26T03:49:00.897Z,82.37
2023-12-26T03:51:32.787Z,82.38
2023-12-26T03:54:05.341Z,82.36
2023-12-26T03:56:37.441Z,82.62
2023-12-26T03:59:09.448Z,82.50
2023-12-26T04:01:41.319Z,82.34
2023-12-26T04:04:13.704Z,82.53
2023-12-26T04:06:45.820Z,82.60
2023-12-26T04:09:19.855Z,82.90
2023-12-26T04:11:51.769Z,82.64
2023-12-26T04:14:23.730Z,82.81
2023-12-26T04:16:55.577Z,82.87
2023-12-26T04:19:28.027Z,82.93
2023-12-26T04:21:59.873Z,83.08
2023-12-26T04:24:31.705Z,83.19
2023-12-26T04:27:03.544Z,83.21
2023-12-26T04:29:36.125Z,83.40
2023-12-26T04:32:09.022Z,83.46
2023-12-26T04:34:42.705Z,83.74
2023-12-26T04:37:14.500Z,83.52
2023-12-26T04:39:46.476Z,83.53
2023-12-26T04:42:18.564Z,83.64
2023-12-26T04:44:50.632Z,83.60
2023-12-26T04:47:22.759Z,83.71
2023-12-26T04:49:54.852Z,84.31
2023-12-26T04:52:26.633Z,84.15
2023-12-26T04:54:58.341Z,84.34
2023-12-26T04:57:30.148Z,84.36
2023-12-26T05:00:02.135Z,84.31
2023-12-26T05:02:33.982Z,84.42
2023-12-26T05:05:06.298Z,84.69
2023-12-26T05:07:38.164Z,84.27
2023-12-26T05:10:11.154Z,84.86
2023-12-26T05:12:42.958Z,84.52
2023-12-26T05:15:14.874Z,84.86
2023-12-26T05:17:46.982Z,85.07
2023-12-26T05:20:29.748Z,85.58
2023-12-26T05:23:03.188Z,85.36
2023-12-26T05:25:34.952Z,85.81
2023-12-26T05:28:07.092Z,85.93
2023-12-26T05:30:39.091Z,86.29
2023-12-26T05:33:10.986Z,86.26
2023-12-26T05:35:43.302Z,86.45
2023-12-26T05:38:15.027Z,86.67
2023-12-26T05:40:46.848Z,86.88
2023-12-26T05:43:18.700Z,86.95
2023-12-26T05:45:50.737Z,87.83
2023-12-26T05:48:22.884Z,88.42
2023-12-26T05:50:54.874Z,88.55
2023-12-26T05:53:30.629Z,88.78
2023-12-26T05:56:02.489Z,88.64
2023-12-26T05:58:34.324Z,89.18
2023-12-26T06:01:11.163Z,89.52
2023-12-26T06:03:43.018Z,90.01
2023-12-26T06:06:15.236Z,90.37
2023-12-26T06:08:47.526Z,90.57
2023-12-26T06:11:19.287Z,90.68
2023-12-26T06:13:50.969Z,90.86
2023-12-26T06:16:22.843Z,91.72
2023-12-26T06:18:55.594Z,92.18
2023-12-26T06:21:27.970Z,92.77
2023-12-26T06:23:59.712Z,93.07
2023-12-26T06:26:31.485Z,94.13
2023-12-26T06:29:03.276Z,94.15
2023-12-26T06:31:34.935Z,94.72
2023-12-26T06:34:06.981Z,94.83
2023-12-26T06:36:38.863Z,95.75
2023-12-26T06:39:12.971Z,96.41
2023-12-26T06:41:45.305Z,96.79
2023-12-26T06:44:18.075Z,96.91
2023-12-26T06:46:49.869Z,97.11
2023-12-26T06:49:22.219Z,97.12
2023-12-26T06:51:54.146Z,96.77
2023-12-26T06:54:25.999Z,97.37
2023-12-26T06:56:57.746Z,97.32
2023-12-26T06:59:29.667Z,97.44
2023-12-26T07:02:01.629Z,97.66
2023-12-26T07:04:33.414Z,97.55
2023-12-26T07:07:05.241Z,98.02
2023-12-26T07:09:36.928Z,98.42
2023-12-26T07:12:09.994Z,98.41
2023-12-26T07:14:41.849Z,98.58
2023-12-26T07:17:13.618Z,98.67
2023-12-26T07:19:45.497Z,98.75
2023-12-26T07:22:17.661Z,98.63
2023-12-26T07:24:49.484Z,98.66
2023-12-26T07:27:21.226Z,98.74
2023-12-26T07:29:53.137Z,98.62
2023-12-26T07:32:25.224Z,99.13
2023-12-26T07:34:57.679Z,98.90
2023-12-26T07:37:29.364Z,98.91
2023-12-26T07:40:01.176Z,99.63
2023-12-26T07:42:33.319Z,100.00
2023-12-26T07:45:05.988Z,99.78
2023-12-26T07:47:37.924Z,99.94
2023-12-26T07:50:11.056Z,100.00
2023-12-26T07:52:43.126Z,100.00
2023-12-26T07:55:17.497Z,99.99
2023-12-26T07:57:50.044Z,99.95
2023-12-26T08:00:22.473Z,100.00
2023-12-26T08:02:56.120Z,100.00
2023-12-26T08:05:28.292Z,100.00
2023-12-26T08:08:00.078Z,100.00
2023-12-26T08:10:32.117Z,100.00
2023-12-26T08:13:03.945Z,100.00
2023-12-26T08:15:35.742Z,100.00
2023-12-26T08:18:09.405Z,100.00
2023-12-26T08:20:41.432Z,100.00
2023-12-26T08:23:13.548Z,100.00
2023-12-26T08:25:45.411Z,100.00
2023-12-26T08:28:17.285Z,100.00
2023-12-26T08:30:49.261Z,100.00
2023-12-26T08:33:22.401Z,100.00
2023-12-26T08:35:54.294Z,100.00
2023-12-26T08:38:26.276Z,100.00
2023-12-26T08:40:58.096Z,100.00
2023-12-26T08:43:30.893Z,100.00
2023-12-26T08:46:02.906Z,100.00
2023-12-26T08:48:34.949Z,100.00
2023-12-26T08:51:07.635Z,100.00
2023-12-26T08:53:39.339Z,100.00
2023-12-26T08:56:11.229Z,100.00
2023-12-26T08:58:43.065Z,100.00
2023-12-26T09:01:15.667Z,100.00
2023-12-26T09:03:47.521Z,100.00
2023-12-26T09:06:19.603Z,100.00
2023-12-26T09:08:51.418Z,100.00
2023-12-26T09:11:23.265Z,100.00
2023-12-26T09:13:54.960Z,100.00
2023-12-26T09:16:26.740Z,100.00
2023-12-26T09:18:59.106Z,100.00
2023-12-26T09:21:30.967Z,100.00
2023-12-26T09:24:02.849Z,100.00
2023-12-26T09:26:34.781Z,100.00
2023-12-26T09:29:06.648Z,100.00
2023-12-26T09:31:38.474Z,100.00
2023-12-26T09:34:11.192Z,100.00
2023-12-26T09:36:43.577Z,100.00
2023-12-26T09:39:15.747Z,100.00
2023-12-26T09:41:50.226Z,100.00
2023-12-26T09:44:22.169Z,100.00
2023-12-26T09:46:53.874Z,100.00
2023-12-26T09:49:28.992Z,100.00
2023-12-26T09:52:03.577Z,100.00
2023-12-26T09:54:35.758Z,100.00
2023-12-26T09:57:08.030Z,100.00
2023-12-26T09:59:41.516Z,100.00
2023-12-26T10:02:16.010Z,100.00
2023-12-26T10:04:48.070Z,100.00
2023-12-26T10:07:20.426Z,100.00
2023-12-26T10:09:52.376Z,100.00
2023-12-26T10:12:31.675Z,100.00
2023-12-26T10:15:05.527Z,100.00
2023-12-26T10:17:37.880Z,100.00
2023-12-26T10:20:13.604Z,100.00
2023-12-26T10:22:46.581Z,100.00
2023-12-26T10:25:18.494Z,100.00
2023-12-26T10:27:59.270Z,100.00
2023-12-26T10:30:31.060Z,100.00
2023-12-26T10:33:04.438Z,100.00
2023-12-26T10:35:36.644Z,100.00
2023-12-26T10:38:12.164Z,100.00
2023-12-26T10:40:43.983Z,100.00
2023-12-26T10:43:16.082Z,100.00
2023-12-26T10:45:48.457Z,100.00
2023-12-26T10:48:22.071Z,100.00
2023-12-26T10:50:55.677Z,100.00
2023-12-26T10:53:33.602Z,100.00
2023-12-26T10:56:05.956Z,100.00
2023-12-26T10:58:38.834Z,100.00
2023-12-26T11:01:11.153Z,100.00
2023-12-26T11:03:44.026Z,100.00
2023-12-26T11:06:18.463Z,100.00
2023-12-26T11:08:52.057Z,100.00
2023-12-26T11:11:24.085Z,100.00
2023-12-26T11:13:56.045Z,100.00
2023-12-26T11:16:27.870Z,100.00
2023-12-26T11:19:00.153Z,100.00
2023-12-26T11:21:33.024Z,100.00
2023-12-26T11:24:05.680Z,100.00
2023-12-26T11:26:38.309Z,100.00
2023-12-26T11:29:10.726Z,99.99
2023-12-26T11:31:42.518Z,100.00
2023-12-26T11:34:16.391Z,100.00
2023-12-26T11:36:50.070Z,100.00
2023-12-26T11:39:21.947Z,100.00
2023-12-26T11:41:54.007Z,99.79
2023-12-26T11:44:26.168Z,99.68
2023-12-26T11:46:57.958Z,98.96
2023-12-26T11:49:29.680Z,98.76
2023-12-26T11:52:02.747Z,98.21
2023-12-26T11:54:34.727Z,97.98
2023-12-26T11:57:06.591Z,97.92
2023-12-26T11:59:38.751Z,98.23
2023-12-26T12:02:10.500Z,98.17
2023-12-26T12:04:42.232Z,98.16
2023-12-26T12:07:16.969Z,97.58
2023-12-26T12:09:48.731Z,96.73
2023-12-26T12:12:20.503Z,96.04
2023-12-26T12:14:58.981Z,94.56
2023-12-26T12:17:31.103Z,93.82
2023-12-26T12:20:03.056Z,92.31
2023-12-26T12:22:34.955Z,92.24
2023-12-26T12:25:06.775Z,91.75
2023-12-26T12:27:38.580Z,92.30
2023-12-26T12:30:10.754Z,92.20
2023-12-26T12:32:42.725Z,91.62
2023-12-26T12:35:16.574Z,90.54
2023-12-26T12:37:49.915Z,90.66
2023-12-26T12:40:21.857Z,90.63
2023-12-26T12:42:55.105Z,90.11
2023-12-26T12:45:26.964Z,88.51
2023-12-26T12:47:59.299Z,88.64
2023-12-26T12:50:32.643Z,89.19
2023-12-26T12:53:04.546Z,88.61
2023-12-26T12:55:36.310Z,88.52
2023-12-26T12:58:08.286Z,88.69
2023-12-26T13:00:40.110Z,88.22
2023-12-26T13:03:21.881Z,88.19
2023-12-26T13:06:00.519Z,88.28
2023-12-26T13:08:33.060Z,87.64
2023-12-26T13:11:05.525Z,87.15
2023-12-26T13:13:38.309Z,86.78
2023-12-26T13:16:10.383Z,87.07
2023-12-26T13:18:42.286Z,85.85
2023-12-26T13:21:19.229Z,84.57
2023-12-26T13:23:51.042Z,84.38
2023-12-26T13:26:22.876Z,84.14
2023-12-26T13:28:54.690Z,83.42
2023-12-26T13:31:26.550Z,83.33
2023-12-26T13:34:01.194Z,82.78
2023-12-26T13:36:33.194Z,80.67
2023-12-26T13:39:05.226Z,81.30
2023-12-26T13:41:37.015Z,80.44
2023-12-26T13:44:15.229Z,80.72
2023-12-26T13:46:47.263Z,79.67
2023-12-26T13:49:19.298Z,77.50
2023-12-26T13:51:52.339Z,75.98
2023-12-26T13:54:24.131Z,75.20
2023-12-26T13:56:56.246Z,74.01
2023-12-26T13:59:28.014Z,74.48
2023-12-26T14:01:59.912Z,74.30
2023-12-26T14:04:31.871Z,74.76
2023-12-26T14:07:04.278Z,74.36
2023-12-26T14:09:36.256Z,73.42
2023-12-26T14:12:08.627Z,73.55
2023-12-26T14:14:40.356Z,73.35
2023-12-26T14:17:12.148Z,72.59
2023-12-26T14:19:43.962Z,73.15
2023-12-26T14:22:15.717Z,72.92
2023-12-26T14:24:47.404Z,73.41
2023-12-26T14:27:19.251Z,73.62
2023-12-26T14:29:51.178Z,74.07
2023-12-26T14:32:23.516Z,75.02
2023-12-26T14:34:56.419Z,75.83
2023-12-26T14:37:28.800Z,77.11
2023-12-26T14:40:00.909Z,77.44
2023-12-26T14:42:32.846Z,77.65
2023-12-26T14:45:04.826Z,77.68
2023-12-26T14:47:36.701Z,78.44
2023-12-26T14:50:08.588Z,78.63
2023-12-26T14:52:40.424Z,78.29
2023-12-26T14:55:12.116Z,78.55
2023-12-26T14:57:44.424Z,78.44
2023-12-26T15:00:16.825Z,77.65
2023-12-26T15:02:49.330Z,77.50
2023-12-26T15:05:21.985Z,77.75
2023-12-26T15:07:53.925Z,78.18
2023-12-26T15:10:25.669Z,78.05
2023-12-26T15:12:57.760Z,77.70
2023-12-26T15:15:30.616Z,78.23
2023-12-26T15:18:02.982Z,77.95
2023-12-26T15:20:35.392Z,77.67
2023-12-26T15:23:08.266Z,77.29
2023-12-26T15:25:40.016Z,77.17
2023-12-26T15:28:11.911Z,77.27
2023-12-26T15:30:43.760Z,77.29
2023-12-26T15:33:15.965Z,77.13
2023-12-26T15:35:48.007Z,77.06
2023-12-26T15:38:20.155Z,77.60
2023-12-26T15:40:52.350Z,77.31
2023-12-26T15:43:24.133Z,77.52
2023-12-26T15:45:56.308Z,77.52
2023-12-26T15:48:28.218Z,77.95
2023-12-26T15:51:00.344Z,78.40
2023-12-26T15:53:32.259Z,79.14
2023-12-26T15:56:05.842Z,79.95
2023-12-26T15:58:37.631Z,80.90
2023-12-26T16:01:10.467Z,81.93
2023-12-26T16:03:42.616Z,82.90
2023-12-26T16:06:21.472Z,83.49
2023-12-26T16:08:53.438Z,83.63
2023-12-26T16:11:25.459Z,84.57
2023-12-26T16:13:57.186Z,84.94
2023-12-26T16:16:29.002Z,85.17
2023-12-26T16:19:01.039Z,86.18
2023-12-26T16:21:33.185Z,85.87
2023-12-26T16:24:05.765Z,85.81
2023-12-26T16:26:39.913Z,85.69
2023-12-26T16:29:12.420Z,85.43
2023-12-26T16:31:46.530Z,84.94
2023-12-26T16:34:18.555Z,84.86
2023-12-26T16:36:51.290Z,84.75
2023-12-26T16:39:23.317Z,85.05
2023-12-26T16:42:09.087Z,85.63
2023-12-26T16:44:45.872Z,85.74
2023-12-26T16:47:17.994Z,86.25
2023-12-26T16:49:49.741Z,86.56
2023-12-26T16:52:21.570Z,87.12
2023-12-26T16:54:55.773Z,86.88
2023-12-26T16:57:28.413Z,86.78
2023-12-26T17:00:00.595Z,86.58
2023-12-26T17:02:33.406Z,86.03
2023-12-26T17:05:07.702Z,85.81
2023-12-26T17:07:39.372Z,85.56
2023-12-26T17:10:11.942Z,85.48
2023-12-26T17:12:43.825Z,84.77
2023-12-26T17:15:15.851Z,84.11
2023-12-26T17:17:47.772Z,84.19
2023-12-26T17:20:19.768Z,84.58
2023-12-26T17:22:51.696Z,84.75
2023-12-26T17:25:23.436Z,84.69
2023-12-26T17:27:55.278Z,84.85
2023-12-26T17:30:28.830Z,84.48
2023-12-26T17:33:01.344Z,84.52
2023-12-26T17:35:33.358Z,83.96
2023-12-26T17:38:05.720Z,83.44
2023-12-26T17:40:37.570Z,83.33
2023-12-26T17:43:09.312Z,83.14
2023-12-26T17:45:41.109Z,83.17
2023-12-26T17:48:13.352Z,83.20
2023-12-26T17:50:45.424Z,83.41
2023-12-26T17:53:19.345Z,83.27
2023-12-26T17:55:51.890Z,83.42
2023-12-26T17:58:29.498Z,83.38
2023-12-26T18:01:01.477Z,83.43
2023-12-26T18:03:34.342Z,83.65
2023-12-26T18:06:12.016Z,83.45
2023-12-26T18:08:43.899Z,83.09
2023-12-26T18:11:18.028Z,82.80
2023-12-26T18:13:49.932Z,82.54
2023-12-26T18:16:21.751Z,82.31
2023-12-26T18:18:53.717Z,82.16
2023-12-26T18:21:29.895Z,81.82
2023-12-26T18:24:01.850Z,81.82
2023-12-26T18:26:33.826Z,81.72
2023-12-26T18:29:05.647Z,81.76
2023-12-26T18:31:37.496Z,81.73
2023-12-26T18:34:09.466Z,81.28
2023-12-26T18:36:43.844Z,80.58
2023-12-26T18:39:15.567Z,80.32
2023-12-26T18:41:47.471Z,79.61
2023-12-26T18:44:19.280Z,78.40
2023-12-26T18:46:51.443Z,78.12
2023-12-26T18:49:23.400Z,78.00
2023-12-26T18:51:56.426Z,77.27
2023-12-26T18:54:28.572Z,77.33
2023-12-26T18:57:00.347Z,77.58
2023-12-26T18:59:32.168Z,77.55
2023-12-26T19:02:04.155Z,76.93
2023-12-26T19:04:36.038Z,77.03
2023-12-26T19:07:08.139Z,77.55
2023-12-26T19:09:40.220Z,77.29
2023-12-26T19:12:12.201Z,77.24
2023-12-26T19:14:44.180Z,77.07
2023-12-26T19:17:18.309Z,77.02
2023-12-26T19:19:48.615Z,76.99
2023-12-26T19:22:20.478Z,76.85
2023-12-26T19:24:52.446Z,76.49
2023-12-26T19:27:24.438Z,76.52
2023-12-26T19:29:56.293Z,76.78
2023-12-26T19:32:28.314Z,76.26
2023-12-26T19:35:00.629Z,75.76
2023-12-26T19:37:34.410Z,75.80
2023-12-26T19:40:07.563Z,75.58
2023-12-26T19:42:39.890Z,75.60
2023-12-26T19:45:12.177Z,75.72
2023-12-26T19:47:44.391Z,75.25
2023-12-26T19:50:16.943Z,75.32
2023-12-26T19:52:48.785Z,75.11
2023-12-26T19:55:20.592Z,75.16
2023-12-26T19:57:52.821Z,75.10
2023-12-26T20:00:26.100Z,75.05
2023-12-26T20:03:02.527Z,75.16
2023-12-26T20:05:37.650Z,74.85
2023-12-26T20:08:09.854Z,75.21
2023-12-26T20:10:41.770Z,75.36
2023-12-26T20:13:16.328Z,75.73
2023-12-26T20:15:49.945Z,75.48
2023-12-26T20:18:22.058Z,75.07
2023-12-26T20:20:54.097Z,75.19
2023-12-26T20:23:25.842Z,74.93
2023-12-26T20:25:57.809Z,74.83
2023-12-26T20:28:29.525Z,74.61
2023-12-26T20:31:01.396Z,74.51
2023-12-26T20:33:33.407Z,74.27
2023-12-26T20:36:05.738Z,74.61
2023-12-26T20:38:37.598Z,74.44
2023-12-26T20:41:10.297Z,74.58
2023-12-26T20:43:42.202Z,74.23
2023-12-26T20:46:15.035Z,74.54
2023-12-26T20:48:46.910Z,74.55
2023-12-26T20:51:18.813Z,74.14
2023-12-26T20:53:51.404Z,74.25
2023-12-26T20:56:23.181Z,74.10
2023-12-26T20:58:54.925Z,73.86
2023-12-26T21:01:27.084Z,73.76
2023-12-26T21:03:59.072Z,73.63
2023-12-26T21:06:31.029Z,73.89
2023-12-26T21:09:02.936Z,74.12
2023-12-26T21:11:34.722Z,73.80
2023-12-26T21:14:06.624Z,73.61
2023-12-26T21:16:38.912Z,73.29
2023-12-26T21:19:12.359Z,73.65
2023-12-26T21:21:44.404Z,73.40
2023-12-26T21:24:16.315Z,73.34
2023-12-26T21:26:50.992Z,73.06
2023-12-26T21:29:23.029Z,73.29
2023-12-26T21:31:54.782Z,72.90
2023-12-26T21:34:26.707Z,72.67
2023-12-26T21:36:58.994Z,72.83
2023-12-26T21:39:31.343Z,72.93
2023-12-26T21:42:04.485Z,72.82
2023-12-26T21:44:40.301Z,73.02
2023-12-26T21:47:13.037Z,73.03
2023-12-26T21:49:46.024Z,72.79
2023-12-26T21:52:18.273Z,72.89
2023-12-26T21:54:50.179Z,72.79
2023-12-26T21:57:22.042Z,73.12
2023-12-26T21:59:54.336Z,73.50
2023-12-26T22:02:26.120Z,73.28
2023-12-26T22:04:57.939Z,73.53
2023-12-26T22:07:29.725Z,73.67
2023-12-26T22:10:01.536Z,73.81
2023-12-26T22:12:33.483Z,73.92
2023-12-26T22:15:13.667Z,74.32
2023-12-26T22:17:52.833Z,74.92
2023-12-26T22:20:24.710Z,75.47
2023-12-26T22:22:56.543Z,75.90
2023-12-26T22:25:28.281Z,76.30
2023-12-26T22:28:00.968Z,76.53
2023-12-26T22:30:33.732Z,77.26
2023-12-26T22:33:06.387Z,77.54
2023-12-26T22:35:40.448Z,77.59
2023-12-26T22:38:10.788Z,77.23
2023-12-26T22:40:42.788Z,77.51
2023-12-26T22:43:14.658Z,78.35
2023-12-26T22:45:46.674Z,78.93
2023-12-26T22:48:18.622Z,79.68
2023-12-26T22:50:50.341Z,80.11
2023-12-26T22:53:22.313Z,80.47
2023-12-26T22:55:54.287Z,80.53
2023-12-26T22:58:26.232Z,80.73
2023-12-26T23:00:58.078Z,80.80
2023-12-26T23:03:30.587Z,80.67
2023-12-26T23:06:03.739Z,80.89
2023-12-26T23:08:36.093Z,80.93
2023-12-26T23:11:07.894Z,80.91
2023-12-26T23:13:39.700Z,80.89
2023-12-26T23:16:11.780Z,81.37
2023-12-26T23:18:43.696Z,81.40
2023-12-26T23:21:21.137Z,81.96
2023-12-26T23:23:53.115Z,81.87
2023-12-26T23:26:25.685Z,81.81
2023-12-26T23:28:57.507Z,81.22
2023-12-26T23:31:32.173Z,80.54
2023-12-26T23:34:04.612Z,80.22
2023-12-26T23:36:38.937Z,79.36
2023-12-26T23:39:10.709Z,79.06
2023-12-26T23:41:42.911Z,78.66
2023-12-26T23:44:15.101Z,78.95
2023-12-26T23:46:47.285Z,79.03
2023-12-26T23:49:19.404Z,78.80
2023-12-26T23:51:52.068Z,78.77
2023-12-26T23:54:24.688Z,78.87
2023-12-26T23:56:56.523Z,78.97
2023-12-26T23:59:28.314Z,78.92
